sensor_id;sensor_type;location;lat;lon;timestamp;P1;durP1;ratioP1;P2;durP2;ratioP2
38479;SDS011;62333;51.980;5.934;2023-10-09T00:01:06;11.63;;;6.80;;
38479;SDS011;62333;51.980;5.934;2023-10-09T00:03:41;10.68;;;5.90;;
38479;SDS011;62333;51.980;5.934;2023-10-09T00:06:08;11.77;;;6.90;;
38479;SDS011;62333;51.980;5.934;2023-10-09T00:08:38;10.90;;;5.72;;
38479;SDS011;62333;51.980;5.934;2023-10-09T00:11:09;9.20;;;5.97;;
38479;SDS011;62333;51.980;5.934;2023-10-09T00:13:45;10.73;;;6.57;;
38479;SDS011;62333;51.980;5.934;2023-10-09T00:16:20;10.15;;;6.57;;
38479;SDS011;62333;51.980;5.934;2023-10-09T00:19:03;14.82;;;7.43;;
38479;SDS011;62333;51.980;5.934;2023-10-09T00:21:45;14.30;;;8.90;;
38479;SDS011;62333;51.980;5.934;2023-10-09T00:24:14;10.90;;;7.82;;
38479;SDS011;62333;51.980;5.934;2023-10-09T00:26:52;17.13;;;9.38;;
38479;SDS011;62333;51.980;5.934;2023-10-09T00:29:36;15.77;;;8.95;;
38479;SDS011;62333;51.980;5.934;2023-10-09T00:32:09;19.60;;;8.98;;
38479;SDS011;62333;51.980;5.934;2023-10-09T00:34:52;14.38;;;8.48;;
38479;SDS011;62333;51.980;5.934;2023-10-09T00:37:18;18.10;;;8.68;;
38479;SDS011;62333;51.980;5.934;2023-10-09T00:39:48;15.25;;;8.70;;
38479;SDS011;62333;51.980;5.934;2023-10-09T00:42:21;14.20;;;8.25;;
38479;SDS011;62333;51.980;5.934;2023-10-09T00:45:01;17.95;;;10.20;;
38479;SDS011;62333;51.980;5.934;2023-10-09T00:47:32;16.95;;;9.30;;
38479;SDS011;62333;51.980;5.934;2023-10-09T00:50:06;14.40;;;8.43;;
38479;SDS011;62333;51.980;5.934;2023-10-09T00:52:47;13.20;;;8.60;;
38479;SDS011;62333;51.980;5.934;2023-10-09T00:55:19;15.45;;;9.48;;
38479;SDS011;62333;51.980;5.934;2023-10-09T00:57:46;18.45;;;9.77;;
38479;SDS011;62333;51.980;5.934;2023-10-09T01:00:25;16.48;;;9.68;;
38479;SDS011;62333;51.980;5.934;2023-10-09T01:03:13;24.52;;;11.60;;
38479;SDS011;62333;51.980;5.934;2023-10-09T01:06:01;18.40;;;12.32;;
38479;SDS011;62333;51.980;5.934;2023-10-09T01:08:33;20.58;;;10.50;;
38479;SDS011;62333;51.980;5.934;2023-10-09T01:11:05;15.07;;;9.27;;
38479;SDS011;62333;51.980;5.934;2023-10-09T01:13:45;18.35;;;10.65;;
38479;SDS011;62333;51.980;5.934;2023-10-09T01:16:11;22.55;;;12.20;;
38479;SDS011;62333;51.980;5.934;2023-10-09T01:18:42;19.33;;;11.95;;
38479;SDS011;62333;51.980;5.934;2023-10-09T01:21:17;17.75;;;11.07;;
38479;SDS011;62333;51.980;5.934;2023-10-09T01:23:45;16.35;;;11.43;;
38479;SDS011;62333;51.980;5.934;2023-10-09T01:29:07;19.10;;;12.65;;
38479;SDS011;62333;51.980;5.934;2023-10-09T01:31:43;16.80;;;10.27;;
38479;SDS011;62333;51.980;5.934;2023-10-09T01:34:26;17.83;;;10.25;;
38479;SDS011;62333;51.980;5.934;2023-10-09T01:37:13;18.92;;;11.52;;
38479;SDS011;62333;51.980;5.934;2023-10-09T01:40:02;21.73;;;11.18;;
38479;SDS011;62333;51.980;5.934;2023-10-09T01:42:46;16.35;;;10.45;;
38479;SDS011;62333;51.980;5.934;2023-10-09T01:45:12;20.98;;;12.27;;
38479;SDS011;62333;51.980;5.934;2023-10-09T01:47:38;17.70;;;10.75;;
38479;SDS011;62333;51.980;5.934;2023-10-09T01:50:05;18.30;;;12.38;;
38479;SDS011;62333;51.980;5.934;2023-10-09T01:52:43;20.08;;;12.32;;
38479;SDS011;62333;51.980;5.934;2023-10-09T01:55:09;14.55;;;11.13;;
38479;SDS011;62333;51.980;5.934;2023-10-09T01:57:53;19.25;;;14.80;;
38479;SDS011;62333;51.980;5.934;2023-10-09T02:00:20;19.48;;;11.80;;
38479;SDS011;62333;51.980;5.934;2023-10-09T02:02:49;16.50;;;11.35;;
38479;SDS011;62333;51.980;5.934;2023-10-09T02:05:15;21.55;;;13.90;;
38479;SDS011;62333;51.980;5.934;2023-10-09T02:07:42;16.63;;;11.68;;
38479;SDS011;62333;51.980;5.934;2023-10-09T02:10:18;17.42;;;11.18;;
38479;SDS011;62333;51.980;5.934;2023-10-09T02:12:50;18.23;;;12.55;;
38479;SDS011;62333;51.980;5.934;2023-10-09T02:15:44;15.38;;;12.20;;
38479;SDS011;62333;51.980;5.934;2023-10-09T02:18:10;18.88;;;12.73;;
38479;SDS011;62333;51.980;5.934;2023-10-09T02:20:50;19.10;;;10.85;;
38479;SDS011;62333;51.980;5.934;2023-10-09T02:23:28;18.50;;;11.57;;
38479;SDS011;62333;51.980;5.934;2023-10-09T02:26:14;15.00;;;10.05;;
38479;SDS011;62333;51.980;5.934;2023-10-09T02:28:50;19.08;;;12.10;;
38479;SDS011;62333;51.980;5.934;2023-10-09T02:31:40;15.88;;;10.05;;
38479;SDS011;62333;51.980;5.934;2023-10-09T02:34:09;15.80;;;10.48;;
38479;SDS011;62333;51.980;5.934;2023-10-09T02:36:40;16.38;;;10.52;;
38479;SDS011;62333;51.980;5.934;2023-10-09T02:39:07;14.38;;;10.05;;
38479;SDS011;62333;51.980;5.934;2023-10-09T02:41:48;15.93;;;10.55;;
38479;SDS011;62333;51.980;5.934;2023-10-09T02:44:19;15.10;;;9.70;;
38479;SDS011;62333;51.980;5.934;2023-10-09T02:46:49;15.32;;;10.40;;
38479;SDS011;62333;51.980;5.934;2023-10-09T02:49:15;14.80;;;10.68;;
38479;SDS011;62333;51.980;5.934;2023-10-09T02:51:41;13.20;;;9.15;;
38479;SDS011;62333;51.980;5.934;2023-10-09T02:54:07;15.80;;;9.55;;
38479;SDS011;62333;51.980;5.934;2023-10-09T02:56:50;14.65;;;9.50;;
38479;SDS011;62333;51.980;5.934;2023-10-09T02:59:47;15.27;;;9.63;;
38479;SDS011;62333;51.980;5.934;2023-10-09T03:02:16;14.02;;;9.60;;
38479;SDS011;62333;51.980;5.934;2023-10-09T03:04:45;17.33;;;12.02;;
38479;SDS011;62333;51.980;5.934;2023-10-09T03:07:10;18.17;;;13.43;;
38479;SDS011;62333;51.980;5.934;2023-10-09T03:09:39;20.08;;;13.50;;
38479;SDS011;62333;51.980;5.934;2023-10-09T03:12:05;19.55;;;12.68;;
38479;SDS011;62333;51.980;5.934;2023-10-09T03:14:35;14.57;;;11.15;;
38479;SDS011;62333;51.980;5.934;2023-10-09T03:17:03;14.40;;;8.93;;
38479;SDS011;62333;51.980;5.934;2023-10-09T03:19:30;14.98;;;10.98;;
38479;SDS011;62333;51.980;5.934;2023-10-09T03:22:02;19.40;;;12.38;;
38479;SDS011;62333;51.980;5.934;2023-10-09T03:24:28;16.05;;;10.88;;
38479;SDS011;62333;51.980;5.934;2023-10-09T03:26:55;14.90;;;10.45;;
38479;SDS011;62333;51.980;5.934;2023-10-09T03:29:22;13.77;;;9.32;;
38479;SDS011;62333;51.980;5.934;2023-10-09T03:31:48;20.58;;;11.23;;
38479;SDS011;62333;51.980;5.934;2023-10-09T03:34:16;13.35;;;9.30;;
38479;SDS011;62333;51.980;5.934;2023-10-09T03:36:43;14.48;;;8.88;;
38479;SDS011;62333;51.980;5.934;2023-10-09T03:39:09;16.98;;;11.05;;
38479;SDS011;62333;51.980;5.934;2023-10-09T03:42:04;17.58;;;11.43;;
38479;SDS011;62333;51.980;5.934;2023-10-09T03:44:33;21.27;;;13.38;;
38479;SDS011;62333;51.980;5.934;2023-10-09T03:47:01;18.23;;;13.20;;
38479;SDS011;62333;51.980;5.934;2023-10-09T03:49:27;16.23;;;11.13;;
38479;SDS011;62333;51.980;5.934;2023-10-09T03:51:54;16.25;;;11.07;;
38479;SDS011;62333;51.980;5.934;2023-10-09T03:54:20;17.80;;;10.50;;
38479;SDS011;62333;51.980;5.934;2023-10-09T03:56:47;15.10;;;10.57;;
38479;SDS011;62333;51.980;5.934;2023-10-09T03:59:19;17.58;;;9.50;;
38479;SDS011;62333;51.980;5.934;2023-10-09T04:01:45;13.80;;;9.07;;
38479;SDS011;62333;51.980;5.934;2023-10-09T04:04:12;14.77;;;8.75;;
38479;SDS011;62333;51.980;5.934;2023-10-09T04:06:39;14.20;;;8.63;;
38479;SDS011;62333;51.980;5.934;2023-10-09T04:09:09;15.48;;;8.93;;
38479;SDS011;62333;51.980;5.934;2023-10-09T04:11:52;15.48;;;9.95;;
38479;SDS011;62333;51.980;5.934;2023-10-09T04:14:38;19.25;;;12.00;;
38479;SDS011;62333;51.980;5.934;2023-10-09T04:17:22;21.33;;;11.50;;
38479;SDS011;62333;51.980;5.934;2023-10-09T04:19:48;15.15;;;10.20;;
38479;SDS011;62333;51.980;5.934;2023-10-09T04:22:34;14.07;;;9.43;;
38479;SDS011;62333;51.980;5.934;2023-10-09T04:25:26;16.77;;;9.43;;
38479;SDS011;62333;51.980;5.934;2023-10-09T04:27:57;18.90;;;13.35;;
38479;SDS011;62333;51.980;5.934;2023-10-09T04:30:39;19.55;;;12.77;;
38479;SDS011;62333;51.980;5.934;2023-10-09T04:33:07;20.50;;;13.27;;
38479;SDS011;62333;51.980;5.934;2023-10-09T04:35:52;19.70;;;11.40;;
38479;SDS011;62333;51.980;5.934;2023-10-09T04:38:38;15.50;;;11.45;;
38479;SDS011;62333;51.980;5.934;2023-10-09T04:41:06;23.27;;;13.27;;
38479;SDS011;62333;51.980;5.934;2023-10-09T04:43:34;17.40;;;13.05;;
38479;SDS011;62333;51.980;5.934;2023-10-09T04:45:59;16.08;;;11.27;;
38479;SDS011;62333;51.980;5.934;2023-10-09T04:48:32;15.52;;;12.07;;
38479;SDS011;62333;51.980;5.934;2023-10-09T04:51:02;17.00;;;11.10;;
38479;SDS011;62333;51.980;5.934;2023-10-09T04:53:56;21.95;;;14.10;;
38479;SDS011;62333;51.980;5.934;2023-10-09T04:56:37;17.13;;;12.52;;
38479;SDS011;62333;51.980;5.934;2023-10-09T04:59:16;18.95;;;13.32;;
38479;SDS011;62333;51.980;5.934;2023-10-09T05:01:43;18.20;;;10.10;;
38479;SDS011;62333;51.980;5.934;2023-10-09T05:04:22;12.60;;;8.40;;
38479;SDS011;62333;51.980;5.934;2023-10-09T05:07:20;14.82;;;9.88;;
38479;SDS011;62333;51.980;5.934;2023-10-09T05:09:49;13.32;;;9.10;;
38479;SDS011;62333;51.980;5.934;2023-10-09T05:12:21;14.30;;;8.73;;
38479;SDS011;62333;51.980;5.934;2023-10-09T05:14:51;15.93;;;10.70;;
38479;SDS011;62333;51.980;5.934;2023-10-09T05:17:37;14.63;;;9.65;;
38479;SDS011;62333;51.980;5.934;2023-10-09T05:20:04;13.63;;;9.15;;
38479;SDS011;62333;51.980;5.934;2023-10-09T05:22:50;14.20;;;10.38;;
38479;SDS011;62333;51.980;5.934;2023-10-09T05:25:26;15.23;;;9.95;;
38479;SDS011;62333;51.980;5.934;2023-10-09T05:28:11;11.27;;;8.32;;
38479;SDS011;62333;51.980;5.934;2023-10-09T05:30:55;13.85;;;8.88;;
38479;SDS011;62333;51.980;5.934;2023-10-09T05:33:47;21.00;;;8.52;;
38479;SDS011;62333;51.980;5.934;2023-10-09T05:36:17;12.77;;;7.45;;
38479;SDS011;62333;51.980;5.934;2023-10-09T05:38:46;12.68;;;8.30;;
38479;SDS011;62333;51.980;5.934;2023-10-09T05:41:23;11.90;;;8.15;;
38479;SDS011;62333;51.980;5.934;2023-10-09T05:44:07;13.30;;;7.63;;
38479;SDS011;62333;51.980;5.934;2023-10-09T05:46:52;13.98;;;9.55;;
38479;SDS011;62333;51.980;5.934;2023-10-09T05:49:36;12.55;;;8.95;;
38479;SDS011;62333;51.980;5.934;2023-10-09T05:52:14;11.30;;;8.85;;
38479;SDS011;62333;51.980;5.934;2023-10-09T05:55:00;11.60;;;6.55;;
38479;SDS011;62333;51.980;5.934;2023-10-09T05:57:44;12.23;;;8.30;;
38479;SDS011;62333;51.980;5.934;2023-10-09T06:00:25;13.55;;;7.07;;
38479;SDS011;62333;51.980;5.934;2023-10-09T06:03:10;12.05;;;8.15;;
38479;SDS011;62333;51.980;5.934;2023-10-09T06:05:55;11.60;;;8.40;;
38479;SDS011;62333;51.980;5.934;2023-10-09T06:08:21;15.23;;;8.93;;
38479;SDS011;62333;51.980;5.934;2023-10-09T06:10:53;15.15;;;8.30;;
38479;SDS011;62333;51.980;5.934;2023-10-09T06:13:45;15.88;;;8.73;;
38479;SDS011;62333;51.980;5.934;2023-10-09T06:16:11;11.60;;;7.65;;
38479;SDS011;62333;51.980;5.934;2023-10-09T06:18:59;12.23;;;7.60;;
38479;SDS011;62333;51.980;5.934;2023-10-09T06:21:37;12.27;;;8.25;;
38479;SDS011;62333;51.980;5.934;2023-10-09T06:24:22;16.73;;;9.43;;
38479;SDS011;62333;51.980;5.934;2023-10-09T06:26:49;10.85;;;7.68;;
38479;SDS011;62333;51.980;5.934;2023-10-09T06:29:29;10.77;;;7.05;;
38479;SDS011;62333;51.980;5.934;2023-10-09T06:32:03;11.77;;;7.68;;
38479;SDS011;62333;51.980;5.934;2023-10-09T06:34:50;15.32;;;7.40;;
38479;SDS011;62333;51.980;5.934;2023-10-09T06:37:17;15.82;;;9.02;;
38479;SDS011;62333;51.980;5.934;2023-10-09T06:39:49;11.82;;;7.65;;
38479;SDS011;62333;51.980;5.934;2023-10-09T06:42:21;12.60;;;8.15;;
38479;SDS011;62333;51.980;5.934;2023-10-09T06:45:09;12.82;;;6.38;;
38479;SDS011;62333;51.980;5.934;2023-10-09T06:47:39;12.95;;;6.32;;
38479;SDS011;62333;51.980;5.934;2023-10-09T06:50:19;10.80;;;6.13;;
38479;SDS011;62333;51.980;5.934;2023-10-09T06:52:53;8.23;;;6.28;;
38479;SDS011;62333;51.980;5.934;2023-10-09T06:55:22;10.15;;;6.15;;
38479;SDS011;62333;51.980;5.934;2023-10-09T06:57:59;11.50;;;6.40;;
38479;SDS011;62333;51.980;5.934;2023-10-09T07:00:37;15.32;;;7.32;;
38479;SDS011;62333;51.980;5.934;2023-10-09T07:03:22;12.57;;;7.60;;
38479;SDS011;62333;51.980;5.934;2023-10-09T07:08:49;13.13;;;8.45;;
38479;SDS011;62333;51.980;5.934;2023-10-09T07:11:40;12.82;;;8.25;;
38479;SDS011;62333;51.980;5.934;2023-10-09T07:16:58;13.32;;;7.18;;
38479;SDS011;62333;51.980;5.934;2023-10-09T07:19:29;11.73;;;7.75;;
38479;SDS011;62333;51.980;5.934;2023-10-09T07:21:59;10.35;;;6.97;;
38479;SDS011;62333;51.980;5.934;2023-10-09T07:24:32;12.02;;;8.15;;
38479;SDS011;62333;51.980;5.934;2023-10-09T07:27:08;12.02;;;8.02;;
38479;SDS011;62333;51.980;5.934;2023-10-09T07:29:39;11.35;;;6.43;;
38479;SDS011;62333;51.980;5.934;2023-10-09T07:32:17;13.57;;;6.75;;
38479;SDS011;62333;51.980;5.934;2023-10-09T07:34:46;13.55;;;7.47;;
38479;SDS011;62333;51.980;5.934;2023-10-09T07:37:27;15.10;;;8.93;;
38479;SDS011;62333;51.980;5.934;2023-10-09T07:39:56;12.70;;;7.72;;
38479;SDS011;62333;51.980;5.934;2023-10-09T07:42:23;17.35;;;8.82;;
38479;SDS011;62333;51.980;5.934;2023-10-09T07:45:08;16.08;;;8.70;;
38479;SDS011;62333;51.980;5.934;2023-10-09T07:47:57;13.02;;;8.52;;
38479;SDS011;62333;51.980;5.934;2023-10-09T07:50:36;16.10;;;9.25;;
38479;SDS011;62333;51.980;5.934;2023-10-09T07:53:05;16.17;;;10.15;;
38479;SDS011;62333;51.980;5.934;2023-10-09T07:55:42;16.88;;;9.93;;
38479;SDS011;62333;51.980;5.934;2023-10-09T07:58:19;11.60;;;7.93;;
38479;SDS011;62333;51.980;5.934;2023-10-09T08:00:51;14.45;;;9.40;;
38479;SDS011;62333;51.980;5.934;2023-10-09T08:03:31;19.08;;;10.48;;
38479;SDS011;62333;51.980;5.934;2023-10-09T08:05:58;14.52;;;8.45;;
38479;SDS011;62333;51.980;5.934;2023-10-09T08:08:43;11.93;;;7.43;;
38479;SDS011;62333;51.980;5.934;2023-10-09T08:11:30;13.32;;;7.65;;
38479;SDS011;62333;51.980;5.934;2023-10-09T08:14:05;11.88;;;7.82;;
38479;SDS011;62333;51.980;5.934;2023-10-09T08:16:46;11.15;;;7.07;;
38479;SDS011;62333;51.980;5.934;2023-10-09T08:19:13;14.00;;;8.68;;
38479;SDS011;62333;51.980;5.934;2023-10-09T08:21:57;12.40;;;7.32;;
38479;SDS011;62333;51.980;5.934;2023-10-09T08:24:52;12.48;;;7.85;;
38479;SDS011;62333;51.980;5.934;2023-10-09T08:27:28;17.52;;;9.88;;
38479;SDS011;62333;51.980;5.934;2023-10-09T08:30:00;14.15;;;9.20;;
38479;SDS011;62333;51.980;5.934;2023-10-09T08:32:48;12.55;;;8.63;;
38479;SDS011;62333;51.980;5.934;2023-10-09T08:35:50;15.55;;;9.00;;
38479;SDS011;62333;51.980;5.934;2023-10-09T08:38:16;14.18;;;8.98;;
38479;SDS011;62333;51.980;5.934;2023-10-09T08:40:48;16.23;;;9.90;;
38479;SDS011;62333;51.980;5.934;2023-10-09T08:43:19;15.75;;;11.48;;
38479;SDS011;62333;51.980;5.934;2023-10-09T08:48:12;13.75;;;8.32;;
38479;SDS011;62333;51.980;5.934;2023-10-09T08:50:41;15.65;;;8.52;;
38479;SDS011;62333;51.980;5.934;2023-10-09T08:53:09;13.70;;;8.10;;
38479;SDS011;62333;51.980;5.934;2023-10-09T08:55:41;15.38;;;8.40;;
38479;SDS011;62333;51.980;5.934;2023-10-09T08:58:07;15.50;;;9.60;;
38479;SDS011;62333;51.980;5.934;2023-10-09T09:00:45;13.70;;;8.60;;
38479;SDS011;62333;51.980;5.934;2023-10-09T09:03:15;13.57;;;7.18;;
38479;SDS011;62333;51.980;5.934;2023-10-09T09:05:45;17.40;;;11.10;;
38479;SDS011;62333;51.980;5.934;2023-10-09T09:08:26;21.15;;;12.25;;
38479;SDS011;62333;51.980;5.934;2023-10-09T09:13:30;16.20;;;10.50;;
38479;SDS011;62333;51.980;5.934;2023-10-09T09:15:57;19.13;;;8.98;;
38479;SDS011;62333;51.980;5.934;2023-10-09T09:18:23;13.20;;;7.35;;
38479;SDS011;62333;51.980;5.934;2023-10-09T09:20:56;12.90;;;7.40;;
38479;SDS011;62333;51.980;5.934;2023-10-09T09:23:23;12.60;;;8.32;;
38479;SDS011;62333;51.980;5.934;2023-10-09T09:25:51;14.40;;;8.85;;
38479;SDS011;62333;51.980;5.934;2023-10-09T09:28:24;14.30;;;8.43;;
38479;SDS011;62333;51.980;5.934;2023-10-09T09:30:52;14.63;;;7.97;;
38479;SDS011;62333;51.980;5.934;2023-10-09T09:36:04;13.10;;;8.85;;
38479;SDS011;62333;51.980;5.934;2023-10-09T09:38:31;16.65;;;9.20;;
38479;SDS011;62333;51.980;5.934;2023-10-09T09:41:12;14.45;;;7.18;;
38479;SDS011;62333;51.980;5.934;2023-10-09T09:43:54;15.82;;;8.45;;
38479;SDS011;62333;51.980;5.934;2023-10-09T09:46:33;16.45;;;9.85;;
38479;SDS011;62333;51.980;5.934;2023-10-09T09:49:05;19.42;;;10.80;;
38479;SDS011;62333;51.980;5.934;2023-10-09T09:51:41;14.68;;;9.27;;
38479;SDS011;62333;51.980;5.934;2023-10-09T09:54:10;17.90;;;9.27;;
38479;SDS011;62333;51.980;5.934;2023-10-09T09:56:40;13.40;;;7.90;;
38479;SDS011;62333;51.980;5.934;2023-10-09T09:59:15;9.63;;;6.20;;
38479;SDS011;62333;51.980;5.934;2023-10-09T10:01:52;14.00;;;7.75;;
38479;SDS011;62333;51.980;5.934;2023-10-09T10:04:31;10.27;;;5.63;;
38479;SDS011;62333;51.980;5.934;2023-10-09T10:07:02;10.77;;;5.30;;
38479;SDS011;62333;51.980;5.934;2023-10-09T10:09:40;10.18;;;5.32;;
38479;SDS011;62333;51.980;5.934;2023-10-09T10:12:11;7.88;;;5.18;;
38479;SDS011;62333;51.980;5.934;2023-10-09T10:14:51;11.02;;;5.40;;
38479;SDS011;62333;51.980;5.934;2023-10-09T10:17:17;10.38;;;6.10;;
38479;SDS011;62333;51.980;5.934;2023-10-09T10:20:04;12.85;;;6.07;;
38479;SDS011;62333;51.980;5.934;2023-10-09T10:22:43;11.20;;;6.28;;
38479;SDS011;62333;51.980;5.934;2023-10-09T10:25:33;12.02;;;7.00;;
38479;SDS011;62333;51.980;5.934;2023-10-09T10:31:03;10.35;;;5.97;;
38479;SDS011;62333;51.980;5.934;2023-10-09T10:34:11;11.02;;;5.70;;
38479;SDS011;62333;51.980;5.934;2023-10-09T10:36:21;15.13;;;5.38;;
38479;SDS011;62333;51.980;5.934;2023-10-09T10:39:07;10.30;;;5.55;;
38479;SDS011;62333;51.980;5.934;2023-10-09T10:41:54;13.68;;;6.10;;
38479;SDS011;62333;51.980;5.934;2023-10-09T10:44:28;12.00;;;6.00;;
38479;SDS011;62333;51.980;5.934;2023-10-09T10:47:11;10.43;;;4.70;;
38479;SDS011;62333;51.980;5.934;2023-10-09T10:50:01;11.40;;;5.53;;
38479;SDS011;62333;51.980;5.934;2023-10-09T10:53:11;12.35;;;4.97;;
38479;SDS011;62333;51.980;5.934;2023-10-09T10:55:59;10.43;;;4.38;;
38479;SDS011;62333;51.980;5.934;2023-10-09T10:58:53;9.85;;;5.07;;
38479;SDS011;62333;51.980;5.934;2023-10-09T11:01:31;9.70;;;3.45;;
38479;SDS011;62333;51.980;5.934;2023-10-09T11:04:16;8.90;;;4.80;;
38479;SDS011;62333;51.980;5.934;2023-10-09T11:06:54;7.57;;;4.20;;
38479;SDS011;62333;51.980;5.934;2023-10-09T11:12:32;10.50;;;5.00;;
38479;SDS011;62333;51.980;5.934;2023-10-09T11:15:11;6.03;;;3.83;;
38479;SDS011;62333;51.980;5.934;2023-10-09T11:18:04;7.78;;;3.75;;
38479;SDS011;62333;51.980;5.934;2023-10-09T11:20:54;11.95;;;4.10;;
38479;SDS011;62333;51.980;5.934;2023-10-09T11:23:42;8.65;;;3.95;;
38479;SDS011;62333;51.980;5.934;2023-10-09T11:26:31;8.18;;;3.25;;
38479;SDS011;62333;51.980;5.934;2023-10-09T11:29:06;5.53;;;2.35;;
38479;SDS011;62333;51.980;5.934;2023-10-09T11:34:30;11.68;;;3.30;;
38479;SDS011;62333;51.980;5.934;2023-10-09T11:36:57;11.52;;;4.57;;
38479;SDS011;62333;51.980;5.934;2023-10-09T11:40:03;12.82;;;3.75;;
38479;SDS011;62333;51.980;5.934;2023-10-09T11:42:48;10.77;;;3.67;;
38479;SDS011;62333;51.980;5.934;2023-10-09T11:47:51;6.75;;;3.17;;
38479;SDS011;62333;51.980;5.934;2023-10-09T11:53:27;9.50;;;4.47;;
38479;SDS011;62333;51.980;5.934;2023-10-09T11:55:53;14.43;;;4.45;;
38479;SDS011;62333;51.980;5.934;2023-10-09T11:58:19;11.88;;;4.15;;
38479;SDS011;62333;51.980;5.934;2023-10-09T12:00:50;12.30;;;3.92;;
38479;SDS011;62333;51.980;5.934;2023-10-09T12:03:16;13.18;;;4.60;;
38479;SDS011;62333;51.980;5.934;2023-10-09T12:05:47;56.13;;;8.65;;
38479;SDS011;62333;51.980;5.934;2023-10-09T12:08:13;11.90;;;3.67;;
38479;SDS011;62333;51.980;5.934;2023-10-09T12:10:41;10.32;;;3.72;;
38479;SDS011;62333;51.980;5.934;2023-10-09T12:13:07;7.72;;;3.40;;
38479;SDS011;62333;51.980;5.934;2023-10-09T12:15:33;10.45;;;4.15;;
38479;SDS011;62333;51.980;5.934;2023-10-09T12:18:05;9.50;;;3.90;;
38479;SDS011;62333;51.980;5.934;2023-10-09T12:20:40;8.13;;;2.85;;
38479;SDS011;62333;51.980;5.934;2023-10-09T12:23:06;5.30;;;2.30;;
38479;SDS011;62333;51.980;5.934;2023-10-09T12:25:32;8.10;;;3.03;;
38479;SDS011;62333;51.980;5.934;2023-10-09T12:28:00;5.25;;;2.03;;
38479;SDS011;62333;51.980;5.934;2023-10-09T12:30:30;8.75;;;2.92;;
38479;SDS011;62333;51.980;5.934;2023-10-09T12:32:57;6.88;;;2.13;;
38479;SDS011;62333;51.980;5.934;2023-10-09T12:35:26;6.45;;;1.70;;
38479;SDS011;62333;51.980;5.934;2023-10-09T12:37:53;6.47;;;1.80;;
38479;SDS011;62333;51.980;5.934;2023-10-09T12:40:20;3.90;;;1.60;;
38479;SDS011;62333;51.980;5.934;2023-10-09T12:42:56;6.40;;;1.80;;
38479;SDS011;62333;51.980;5.934;2023-10-09T12:45:24;3.42;;;1.77;;
38479;SDS011;62333;51.980;5.934;2023-10-09T12:47:57;7.05;;;1.83;;
38479;SDS011;62333;51.980;5.934;2023-10-09T12:50:33;8.68;;;1.50;;
38479;SDS011;62333;51.980;5.934;2023-10-09T12:55:34;3.95;;;1.05;;
38479;SDS011;62333;51.980;5.934;2023-10-09T12:58:10;8.55;;;1.27;;
38479;SDS011;62333;51.980;5.934;2023-10-09T13:00:41;4.72;;;1.40;;
38479;SDS011;62333;51.980;5.934;2023-10-09T13:03:13;5.85;;;1.30;;
38479;SDS011;62333;51.980;5.934;2023-10-09T13:05:49;6.53;;;1.65;;
38479;SDS011;62333;51.980;5.934;2023-10-09T13:08:28;5.60;;;1.73;;
38479;SDS011;62333;51.980;5.934;2023-10-09T13:11:03;4.75;;;1.52;;
38479;SDS011;62333;51.980;5.934;2023-10-09T13:13:37;2.85;;;1.73;;
38479;SDS011;62333;51.980;5.934;2023-10-09T13:16:08;4.93;;;1.65;;
38479;SDS011;62333;51.980;5.934;2023-10-09T13:18:41;5.00;;;1.98;;
38479;SDS011;62333;51.980;5.934;2023-10-09T13:21:14;4.53;;;1.88;;
38479;SDS011;62333;51.980;5.934;2023-10-09T13:23:41;7.25;;;1.60;;
38479;SDS011;62333;51.980;5.934;2023-10-09T13:26:11;7.38;;;2.17;;
38479;SDS011;62333;51.980;5.934;2023-10-09T13:28:49;4.25;;;1.50;;
38479;SDS011;62333;51.980;5.934;2023-10-09T13:31:16;2.85;;;1.27;;
38479;SDS011;62333;51.980;5.934;2023-10-09T13:33:43;4.75;;;1.30;;
38479;SDS011;62333;51.980;5.934;2023-10-09T13:36:10;5.40;;;2.00;;
38479;SDS011;62333;51.980;5.934;2023-10-09T13:38:52;5.63;;;1.73;;
38479;SDS011;62333;51.980;5.934;2023-10-09T13:41:20;4.18;;;2.10;;
38479;SDS011;62333;51.980;5.934;2023-10-09T13:43:47;8.23;;;2.67;;
38479;SDS011;62333;51.980;5.934;2023-10-09T13:46:16;6.90;;;1.77;;
38479;SDS011;62333;51.980;5.934;2023-10-09T13:48:43;4.93;;;1.90;;
38479;SDS011;62333;51.980;5.934;2023-10-09T13:51:10;8.70;;;2.15;;
38479;SDS011;62333;51.980;5.934;2023-10-09T13:53:42;6.28;;;1.67;;
38479;SDS011;62333;51.980;5.934;2023-10-09T13:56:15;4.95;;;1.50;;
38479;SDS011;62333;51.980;5.934;2023-10-09T13:58:49;4.35;;;1.63;;
38479;SDS011;62333;51.980;5.934;2023-10-09T14:01:19;8.82;;;3.63;;
38479;SDS011;62333;51.980;5.934;2023-10-09T14:03:55;3.80;;;1.23;;
38479;SDS011;62333;51.980;5.934;2023-10-09T14:06:26;6.05;;;1.60;;
38479;SDS011;62333;51.980;5.934;2023-10-09T14:08:56;4.40;;;1.88;;
38479;SDS011;62333;51.980;5.934;2023-10-09T14:11:34;6.28;;;2.30;;
38479;SDS011;62333;51.980;5.934;2023-10-09T14:14:04;4.45;;;2.28;;
38479;SDS011;62333;51.980;5.934;2023-10-09T14:16:35;5.28;;;1.50;;
38479;SDS011;62333;51.980;5.934;2023-10-09T14:19:01;6.38;;;1.67;;
38479;SDS011;62333;51.980;5.934;2023-10-09T14:21:32;5.55;;;1.27;;
38479;SDS011;62333;51.980;5.934;2023-10-09T14:24:02;4.80;;;1.60;;
38479;SDS011;62333;51.980;5.934;2023-10-09T14:26:40;6.53;;;1.77;;
38479;SDS011;62333;51.980;5.934;2023-10-09T14:29:07;7.55;;;1.88;;
38479;SDS011;62333;51.980;5.934;2023-10-09T14:31:33;4.50;;;1.52;;
38479;SDS011;62333;51.980;5.934;2023-10-09T14:34:04;3.45;;;1.58;;
38479;SDS011;62333;51.980;5.934;2023-10-09T14:36:30;4.75;;;1.15;;
38479;SDS011;62333;51.980;5.934;2023-10-09T14:38:58;5.70;;;1.63;;
38479;SDS011;62333;51.980;5.934;2023-10-09T14:41:29;5.28;;;1.63;;
38479;SDS011;62333;51.980;5.934;2023-10-09T14:43:58;3.13;;;1.35;;
38479;SDS011;62333;51.980;5.934;2023-10-09T14:46:24;6.10;;;1.52;;
38479;SDS011;62333;51.980;5.934;2023-10-09T14:48:53;5.75;;;2.17;;
38479;SDS011;62333;51.980;5.934;2023-10-09T14:51:20;4.22;;;1.45;;
38479;SDS011;62333;51.980;5.934;2023-10-09T14:53:52;4.30;;;1.67;;
38479;SDS011;62333;51.980;5.934;2023-10-09T14:56:23;2.78;;;1.25;;
38479;SDS011;62333;51.980;5.934;2023-10-09T14:58:58;3.83;;;1.30;;
38479;SDS011;62333;51.980;5.934;2023-10-09T15:01:25;6.20;;;1.85;;
38479;SDS011;62333;51.980;5.934;2023-10-09T15:03:54;3.75;;;1.52;;
38479;SDS011;62333;51.980;5.934;2023-10-09T15:06:22;4.65;;;1.33;;
38479;SDS011;62333;51.980;5.934;2023-10-09T15:08:49;3.78;;;1.58;;
38479;SDS011;62333;51.980;5.934;2023-10-09T15:11:15;4.88;;;1.60;;
38479;SDS011;62333;51.980;5.934;2023-10-09T15:13:41;3.85;;;1.30;;
38479;SDS011;62333;51.980;5.934;2023-10-09T15:16:06;3.88;;;1.63;;
38479;SDS011;62333;51.980;5.934;2023-10-09T15:18:32;4.82;;;1.55;;
38479;SDS011;62333;51.980;5.934;2023-10-09T15:20:59;5.70;;;2.13;;
38479;SDS011;62333;51.980;5.934;2023-10-09T15:23:25;5.60;;;2.30;;
38479;SDS011;62333;51.980;5.934;2023-10-09T15:25:51;4.40;;;2.05;;
38479;SDS011;62333;51.980;5.934;2023-10-09T15:28:21;4.45;;;1.58;;
38479;SDS011;62333;51.980;5.934;2023-10-09T15:30:47;5.50;;;2.35;;
38479;SDS011;62333;51.980;5.934;2023-10-09T15:33:14;4.32;;;1.42;;
38479;SDS011;62333;51.980;5.934;2023-10-09T15:35:44;5.28;;;2.13;;
38479;SDS011;62333;51.980;5.934;2023-10-09T15:38:11;6.07;;;2.35;;
38479;SDS011;62333;51.980;5.934;2023-10-09T15:40:38;5.95;;;2.30;;
38479;SDS011;62333;51.980;5.934;2023-10-09T15:43:07;4.35;;;1.40;;
38479;SDS011;62333;51.980;5.934;2023-10-09T15:45:40;5.10;;;2.00;;
38479;SDS011;62333;51.980;5.934;2023-10-09T15:48:07;6.00;;;1.50;;
38479;SDS011;62333;51.980;5.934;2023-10-09T15:50:32;5.72;;;1.70;;